sensor_id;sensor_type;location;lat;lon;timestamp;pressure;altitude;pressure_sealevel;temperature;humidity
20628;BME280;10473;42.734;24.258;2022-07-22T00:01:32;92098.63;;;21.66;51.83
20628;BME280;10473;42.734;24.258;2022-07-22T00:04:00;92108.59;;;21.69;51.82
20628;BME280;10473;42.734;24.258;2022-07-22T00:06:28;92100.59;;;21.66;51.78
20628;BME280;10473;42.734;24.258;2022-07-22T00:08:56;92106.41;;;21.64;51.58
20628;BME280;10473;42.734;24.258;2022-07-22T00:11:24;92099.81;;;21.65;52.01
20628;BME280;10473;42.734;24.258;2022-07-22T00:13:53;92100.25;;;21.64;52.12
20628;BME280;10473;42.734;24.258;2022-07-22T00:16:21;92104.34;;;21.56;51.98
20628;BME280;10473;42.734;24.258;2022-07-22T00:18:48;92103.56;;;21.55;52.39
20628;BME280;10473;42.734;24.258;2022-07-22T00:21:16;92098.81;;;21.47;52.63
20628;BME280;10473;42.734;24.258;2022-07-22T00:23:44;92104.63;;;21.45;52.81
20628;BME280;10473;42.734;24.258;2022-07-22T00:26:12;92102.66;;;21.33;53.02
20628;BME280;10473;42.734;24.258;2022-07-22T00:28:40;92096.69;;;21.26;53.08
20628;BME280;10473;42.734;24.258;2022-07-22T00:31:09;92100.44;;;21.16;53.10
20628;BME280;10473;42.734;24.258;2022-07-22T00:33:37;92098.78;;;21.06;53.55
20628;BME280;10473;42.734;24.258;2022-07-22T00:36:05;92097.13;;;20.96;53.81
20628;BME280;10473;42.734;24.258;2022-07-22T00:38:33;92089.53;;;20.75;54.13
20628;BME280;10473;42.734;24.258;2022-07-22T00:41:01;92091.63;;;20.83;53.89
20628;BME280;10473;42.734;24.258;2022-07-22T00:43:54;92091.69;;;20.80;53.96
20628;BME280;10473;42.734;24.258;2022-07-22T00:46:23;92091.91;;;20.73;54.06
20628;BME280;10473;42.734;24.258;2022-07-22T00:48:53;92094.91;;;20.75;53.99
20628;BME280;10473;42.734;24.258;2022-07-22T00:51:21;92098.13;;;20.70;54.37
20628;BME280;10473;42.734;24.258;2022-07-22T00:53:50;92091.81;;;20.76;54.33
20628;BME280;10473;42.734;24.258;2022-07-22T00:56:18;92103.84;;;20.72;54.39
20628;BME280;10473;42.734;24.258;2022-07-22T00:58:48;92108.41;;;20.43;54.99
20628;BME280;10473;42.734;24.258;2022-07-22T01:01:17;92095.00;;;20.23;55.19
20628;BME280;10473;42.734;24.258;2022-07-22T01:03:47;92102.84;;;20.34;55.27
20628;BME280;10473;42.734;24.258;2022-07-22T01:06:16;92099.81;;;20.48;55.01
20628;BME280;10473;42.734;24.258;2022-07-22T01:08:44;92090.25;;;20.47;55.52
20628;BME280;10473;42.734;24.258;2022-07-22T01:11:13;92098.63;;;20.49;55.21
20628;BME280;10473;42.734;24.258;2022-07-22T01:13:42;92094.94;;;20.43;55.68
20628;BME280;10473;42.734;24.258;2022-07-22T01:16:11;92105.03;;;20.39;55.43
20628;BME280;10473;42.734;24.258;2022-07-22T01:18:39;92104.78;;;20.33;55.79
20628;BME280;10473;42.734;24.258;2022-07-22T01:21:10;92107.63;;;20.26;55.87
20628;BME280;10473;42.734;24.258;2022-07-22T01:23:38;92098.47;;;20.08;56.01
20628;BME280;10473;42.734;24.258;2022-07-22T01:26:07;92102.66;;;20.09;56.36
20628;BME280;10473;42.734;24.258;2022-07-22T01:28:35;92097.97;;;20.13;56.10
20628;BME280;10473;42.734;24.258;2022-07-22T01:31:04;92092.66;;;20.09;56.05
20628;BME280;10473;42.734;24.258;2022-07-22T01:33:32;92097.28;;;20.09;56.14
20628;BME280;10473;42.734;24.258;2022-07-22T01:36:00;92093.53;;;20.03;56.17
20628;BME280;10473;42.734;24.258;2022-07-22T01:38:30;92097.47;;;19.98;56.11
20628;BME280;10473;42.734;24.258;2022-07-22T01:40:58;92086.47;;;19.93;56.38
20628;BME280;10473;42.734;24.258;2022-07-22T01:43:27;92080.06;;;19.87;56.75
20628;BME280;10473;42.734;24.258;2022-07-22T01:45:55;92077.53;;;19.80;56.43
20628;BME280;10473;42.734;24.258;2022-07-22T01:48:23;92092.16;;;19.79;56.68
20628;BME280;10473;42.734;24.258;2022-07-22T01:50:51;92087.94;;;19.78;56.61
20628;BME280;10473;42.734;24.258;2022-07-22T01:53:19;92088.44;;;19.73;56.96
20628;BME280;10473;42.734;24.258;2022-07-22T01:55:49;92091.78;;;19.77;56.82
20628;BME280;10473;42.734;24.258;2022-07-22T01:58:18;92092.47;;;19.81;56.50
20628;BME280;10473;42.734;24.258;2022-07-22T02:00:48;92086.41;;;19.77;56.72
20628;BME280;10473;42.734;24.258;2022-07-22T02:03:16;92084.50;;;19.77;56.62
20628;BME280;10473;42.734;24.258;2022-07-22T02:05:44;92083.81;;;19.73;57.11
20628;BME280;10473;42.734;24.258;2022-07-22T02:08:22;92084.22;;;19.72;56.69
20628;BME280;10473;42.734;24.258;2022-07-22T02:11:24;92084.06;;;19.63;57.02
20628;BME280;10473;42.734;24.258;2022-07-22T02:13:55;92075.28;;;19.59;57.48
20628;BME280;10473;42.734;24.258;2022-07-22T02:16:24;92086.88;;;19.56;57.32
20628;BME280;10473;42.734;24.258;2022-07-22T02:18:53;92081.72;;;19.45;57.52
20628;BME280;10473;42.734;24.258;2022-07-22T02:21:21;92087.63;;;19.56;57.51
20628;BME280;10473;42.734;24.258;2022-07-22T02:23:52;92086.19;;;19.52;57.69
20628;BME280;10473;42.734;24.258;2022-07-22T02:26:20;92078.88;;;19.52;57.13
20628;BME280;10473;42.734;24.258;2022-07-22T02:28:49;92077.69;;;19.53;57.69
20628;BME280;10473;42.734;24.258;2022-07-22T02:31:17;92082.06;;;19.47;57.58
20628;BME280;10473;42.734;24.258;2022-07-22T02:33:46;92084.06;;;19.43;58.02
20628;BME280;10473;42.734;24.258;2022-07-22T02:36:14;92078.34;;;19.41;57.94
20628;BME280;10473;42.734;24.258;2022-07-22T02:38:43;92076.88;;;19.37;57.97
20628;BME280;10473;42.734;24.258;2022-07-22T02:41:11;92072.84;;;19.29;58.37
20628;BME280;10473;42.734;24.258;2022-07-22T02:43:46;92074.50;;;19.23;58.13
20628;BME280;10473;42.734;24.258;2022-07-22T02:46:16;92071.09;;;19.19;58.28
20628;BME280;10473;42.734;24.258;2022-07-22T02:48:43;92066.22;;;19.14;58.47
20628;BME280;10473;42.734;24.258;2022-07-22T02:51:14;92071.50;;;19.17;57.98
20628;BME280;10473;42.734;24.258;2022-07-22T02:53:41;92072.81;;;18.90;58.85
20628;BME280;10473;42.734;24.258;2022-07-22T02:56:10;92073.69;;;18.83;59.98
20628;BME280;10473;42.734;24.258;2022-07-22T02:58:37;92075.41;;;18.93;58.97
20628;BME280;10473;42.734;24.258;2022-07-22T03:01:05;92071.16;;;18.96;59.18
20628;BME280;10473;42.734;24.258;2022-07-22T03:03:44;92073.66;;;19.06;58.99
20628;BME280;10473;42.734;24.258;2022-07-22T03:06:12;92080.13;;;19.09;58.87
20628;BME280;10473;42.734;24.258;2022-07-22T03:08:50;92071.56;;;18.94;59.21
20628;BME280;10473;42.734;24.258;2022-07-22T03:11:18;92080.84;;;18.90;59.31
20628;BME280;10473;42.734;24.258;2022-07-22T03:13:46;92069.97;;;18.97;58.94
20628;BME280;10473;42.734;24.258;2022-07-22T03:16:13;92070.25;;;19.02;58.96
20628;BME280;10473;42.734;24.258;2022-07-22T03:18:41;92080.94;;;19.06;58.81
20628;BME280;10473;42.734;24.258;2022-07-22T03:21:14;92080.38;;;19.14;58.84
20628;BME280;10473;42.734;24.258;2022-07-22T03:23:41;92076.81;;;19.21;58.91
20628;BME280;10473;42.734;24.258;2022-07-22T03:26:09;92080.31;;;19.18;58.83
20628;BME280;10473;42.734;24.258;2022-07-22T03:28:37;92068.53;;;19.12;58.98
20628;BME280;10473;42.734;24.258;2022-07-22T03:31:05;92072.59;;;19.20;58.51
20628;BME280;10473;42.734;24.258;2022-07-22T03:33:32;92075.16;;;19.27;58.73
20628;BME280;10473;42.734;24.258;2022-07-22T03:36:00;92077.53;;;19.25;58.64
20628;BME280;10473;42.734;24.258;2022-07-22T03:38:29;92076.34;;;19.26;59.03
20628;BME280;10473;42.734;24.258;2022-07-22T03:40:57;92071.34;;;19.28;58.76
20628;BME280;10473;42.734;24.258;2022-07-22T03:43:25;92079.41;;;19.28;58.88
20628;BME280;10473;42.734;24.258;2022-07-22T03:45:53;92079.13;;;19.22;59.05
20628;BME280;10473;42.734;24.258;2022-07-22T03:48:20;92071.59;;;19.14;59.43
20628;BME280;10473;42.734;24.258;2022-07-22T03:50:48;92075.16;;;19.27;59.04
20628;BME280;10473;42.734;24.258;2022-07-22T03:53:18;92085.44;;;19.32;59.36
20628;BME280;10473;42.734;24.258;2022-07-22T03:55:48;92076.03;;;19.24;59.27
20628;BME280;10473;42.734;24.258;2022-07-22T03:58:16;92087.72;;;19.33;59.19
20628;BME280;10473;42.734;24.258;2022-07-22T04:00:45;92079.66;;;19.33;59.42
20628;BME280;10473;42.734;24.258;2022-07-22T04:03:12;92080.75;;;19.36;59.74
20628;BME280;10473;42.734;24.258;2022-07-22T04:06:00;92076.56;;;19.35;59.48
20628;BME280;10473;42.734;24.258;2022-07-22T04:08:39;92077.09;;;19.46;59.70
20628;BME280;10473;42.734;24.258;2022-07-22T04:11:08;92077.41;;;19.67;58.92
20628;BME280;10473;42.734;24.258;2022-07-22T04:13:36;92086.56;;;19.89;59.47
20628;BME280;10473;42.734;24.258;2022-07-22T04:16:04;92085.50;;;20.19;58.44
20628;BME280;10473;42.734;24.258;2022-07-22T04:18:32;92087.13;;;20.48;59.74
20628;BME280;10473;42.734;24.258;2022-07-22T04:21:00;92083.97;;;20.82;59.38
20628;BME280;10473;42.734;24.258;2022-07-22T04:23:48;92094.19;;;21.19;57.06
20628;BME280;10473;42.734;24.258;2022-07-22T04:26:22;92086.97;;;21.57;58.58
20628;BME280;10473;42.734;24.258;2022-07-22T04:28:50;92091.13;;;21.74;55.19
20628;BME280;10473;42.734;24.258;2022-07-22T04:31:18;92090.94;;;21.93;56.13
20628;BME280;10473;42.734;24.258;2022-07-22T04:33:50;92104.34;;;22.34;55.66
20628;BME280;10473;42.734;24.258;2022-07-22T04:36:17;92112.78;;;22.74;55.03
20628;BME280;10473;42.734;24.258;2022-07-22T04:38:45;92113.66;;;23.05;53.03
20628;BME280;10473;42.734;24.258;2022-07-22T04:41:14;92108.06;;;23.33;52.44
20628;BME280;10473;42.734;24.258;2022-07-22T04:43:44;92102.31;;;23.65;52.43
20628;BME280;10473;42.734;24.258;2022-07-22T04:46:12;92096.63;;;23.94;51.50
20628;BME280;10473;42.734;24.258;2022-07-22T04:48:42;92100.41;;;24.27;52.56
20628;BME280;10473;42.734;24.258;2022-07-22T04:51:10;92104.28;;;24.56;50.32
20628;BME280;10473;42.734;24.258;2022-07-22T04:53:39;92097.63;;;24.88;51.07
20628;BME280;10473;42.734;24.258;2022-07-22T04:56:07;92096.91;;;25.05;49.39
20628;BME280;10473;42.734;24.258;2022-07-22T04:58:35;92101.03;;;25.37;50.86
20628;BME280;10473;42.734;24.258;2022-07-22T05:01:04;92104.03;;;25.48;47.29
20628;BME280;10473;42.734;24.258;2022-07-22T05:03:32;92100.72;;;25.62;45.73
20628;BME280;10473;42.734;24.258;2022-07-22T05:06:01;92108.41;;;25.82;49.55
20628;BME280;10473;42.734;24.258;2022-07-22T05:08:34;92104.94;;;25.72;45.50
20628;BME280;10473;42.734;24.258;2022-07-22T05:11:02;92109.31;;;25.70;45.46
20628;BME280;10473;42.734;24.258;2022-07-22T05:13:30;92098.78;;;24.60;45.61
20628;BME280;10473;42.734;24.258;2022-07-22T05:16:04;92105.31;;;24.89;46.78
20628;BME280;10473;42.734;24.258;2022-07-22T05:18:34;92103.13;;;25.42;45.23
20628;BME280;10473;42.734;24.258;2022-07-22T05:21:02;92111.28;;;25.69;47.65
20628;BME280;10473;42.734;24.258;2022-07-22T05:23:30;92099.66;;;25.69;46.20
20628;BME280;10473;42.734;24.258;2022-07-22T05:25:58;92103.75;;;25.73;48.01
20628;BME280;10473;42.734;24.258;2022-07-22T05:28:26;92113.94;;;26.23;51.27
20628;BME280;10473;42.734;24.258;2022-07-22T05:30:53;92108.72;;;26.43;45.75
20628;BME280;10473;42.734;24.258;2022-07-22T05:33:26;92121.31;;;26.73;45.82
20628;BME280;10473;42.734;24.258;2022-07-22T05:36:06;92119.56;;;26.94;45.24
20628;BME280;10473;42.734;24.258;2022-07-22T05:38:39;92122.13;;;27.21;44.25
20628;BME280;10473;42.734;24.258;2022-07-22T05:41:08;92112.59;;;26.93;42.65
20628;BME280;10473;42.734;24.258;2022-07-22T05:43:35;92119.91;;;27.10;45.51
20628;BME280;10473;42.734;24.258;2022-07-22T05:46:05;92125.09;;;27.55;46.02
20628;BME280;10473;42.734;24.258;2022-07-22T05:48:35;92123.56;;;27.54;42.02
20628;BME280;10473;42.734;24.258;2022-07-22T05:51:02;92120.44;;;27.70;43.57
20628;BME280;10473;42.734;24.258;2022-07-22T05:53:32;92123.03;;;28.17;46.69
20628;BME280;10473;42.734;24.258;2022-07-22T05:56:00;92118.44;;;28.38;44.91
20628;BME280;10473;42.734;24.258;2022-07-22T05:58:29;92119.72;;;28.71;41.17
20628;BME280;10473;42.734;24.258;2022-07-22T06:00:56;92112.91;;;28.96;40.14
20628;BME280;10473;42.734;24.258;2022-07-22T06:03:25;92112.97;;;28.38;39.56
20628;BME280;10473;42.734;24.258;2022-07-22T06:05:54;92112.69;;;28.79;42.80
20628;BME280;10473;42.734;24.258;2022-07-22T06:08:21;92118.56;;;29.27;45.32
20628;BME280;10473;42.734;24.258;2022-07-22T06:10:51;92119.50;;;29.58;44.05
20628;BME280;10473;42.734;24.258;2022-07-22T06:13:20;92126.09;;;29.92;46.08
20628;BME280;10473;42.734;24.258;2022-07-22T06:15:48;92125.25;;;30.06;38.67
20628;BME280;10473;42.734;24.258;2022-07-22T06:18:16;92134.91;;;30.21;40.37
20628;BME280;10473;42.734;24.258;2022-07-22T06:20:44;92128.91;;;30.48;43.14
20628;BME280;10473;42.734;24.258;2022-07-22T06:23:14;92127.16;;;29.20;38.48
20628;BME280;10473;42.734;24.258;2022-07-22T06:25:42;92134.03;;;28.66;40.08
20628;BME280;10473;42.734;24.258;2022-07-22T06:28:24;92123.97;;;29.21;42.23
20628;BME280;10473;42.734;24.258;2022-07-22T06:30:51;92127.13;;;29.54;38.66
20628;BME280;10473;42.734;24.258;2022-07-22T06:33:21;92124.81;;;29.87;42.44
20628;BME280;10473;42.734;24.258;2022-07-22T06:35:49;92127.28;;;30.11;39.09
20628;BME280;10473;42.734;24.258;2022-07-22T06:38:19;92119.38;;;30.38;43.97
20628;BME280;10473;42.734;24.258;2022-07-22T06:41:09;92116.81;;;30.60;38.09
20628;BME280;10473;42.734;24.258;2022-07-22T06:44:15;92124.53;;;30.87;37.94
20628;BME280;10473;42.734;24.258;2022-07-22T06:47:09;92124.34;;;30.96;37.95
20628;BME280;10473;42.734;24.258;2022-07-22T06:49:38;92112.50;;;30.23;38.56
20628;BME280;10473;42.734;24.258;2022-07-22T06:52:06;92113.75;;;30.22;38.61
20628;BME280;10473;42.734;24.258;2022-07-22T06:54:35;92116.19;;;30.45;37.68
20628;BME280;10473;42.734;24.258;2022-07-22T06:57:03;92110.31;;;30.58;39.38
20628;BME280;10473;42.734;24.258;2022-07-22T06:59:33;92108.47;;;30.69;39.46
20628;BME280;10473;42.734;24.258;2022-07-22T07:02:06;92106.38;;;29.82;39.59
20628;BME280;10473;42.734;24.258;2022-07-22T07:04:34;92107.63;;;28.92;40.09
20628;BME280;10473;42.734;24.258;2022-07-22T07:07:02;92108.66;;;28.60;41.31
20628;BME280;10473;42.734;24.258;2022-07-22T07:09:32;92110.09;;;28.41;41.82
20628;BME280;10473;42.734;24.258;2022-07-22T07:12:14;92114.88;;;28.95;42.20
20628;BME280;10473;42.734;24.258;2022-07-22T07:15:00;92122.34;;;27.93;42.90
20628;BME280;10473;42.734;24.258;2022-07-22T07:17:27;92125.94;;;27.99;42.40
20628;BME280;10473;42.734;24.258;2022-07-22T07:19:55;92120.84;;;28.07;43.37
20628;BME280;10473;42.734;24.258;2022-07-22T07:22:23;92125.75;;;28.17;43.75
20628;BME280;10473;42.734;24.258;2022-07-22T07:24:51;92126.16;;;28.10;43.91
20628;BME280;10473;42.734;24.258;2022-07-22T07:27:20;92125.00;;;28.31;42.89
20628;BME280;10473;42.734;24.258;2022-07-22T07:29:51;92124.06;;;28.05;43.60
20628;BME280;10473;42.734;24.258;2022-07-22T07:32:19;92126.50;;;28.32;43.51
20628;BME280;10473;42.734;24.258;2022-07-22T07:34:47;92117.97;;;28.25;42.22
20628;BME280;10473;42.734;24.258;2022-07-22T07:37:14;92120.50;;;28.14;42.34
20628;BME280;10473;42.734;24.258;2022-07-22T07:39:42;92114.50;;;28.24;41.66
20628;BME280;10473;42.734;24.258;2022-07-22T07:42:10;92104.50;;;28.36;43.61
20628;BME280;10473;42.734;24.258;2022-07-22T07:44:39;92114.00;;;28.26;41.48
20628;BME280;10473;42.734;24.258;2022-07-22T07:47:07;92112.44;;;28.19;41.14
20628;BME280;10473;42.734;24.258;2022-07-22T07:49:35;92112.72;;;28.50;40.66
20628;BME280;10473;42.734;24.258;2022-07-22T07:52:03;92114.41;;;28.97;44.05
20628;BME280;10473;42.734;24.258;2022-07-22T07:54:31;92106.81;;;28.86;40.04
20628;BME280;10473;42.734;24.258;2022-07-22T07:56:58;92111.34;;;28.75;40.40
20628;BME280;10473;42.734;24.258;2022-07-22T07:59:26;92107.22;;;29.14;39.75
20628;BME280;10473;42.734;24.258;2022-07-22T08:01:55;92112.25;;;29.55;43.80
20628;BME280;10473;42.734;24.258;2022-07-22T08:04:23;92112.66;;;29.88;40.65
20628;BME280;10473;42.734;24.258;2022-07-22T08:06:50;92120.75;;;29.43;37.29
20628;BME280;10473;42.734;24.258;2022-07-22T08:09:18;92107.09;;;29.43;39.65
20628;BME280;10473;42.734;24.258;2022-07-22T08:11:46;92115.66;;;29.70;39.11
20628;BME280;10473;42.734;24.258;2022-07-22T08:14:40;92115.09;;;29.46;38.95
20628;BME280;10473;42.734;24.258;2022-07-22T08:17:36;92111.28;;;29.38;38.30
20628;BME280;10473;42.734;24.258;2022-07-22T08:20:05;92107.09;;;29.43;40.93
20628;BME280;10473;42.734;24.258;2022-07-22T08:22:33;92102.13;;;29.41;38.61
20628;BME280;10473;42.734;24.258;2022-07-22T08:25:01;92109.91;;;29.88;39.44
20628;BME280;10473;42.734;24.258;2022-07-22T08:27:30;92099.13;;;29.39;37.65
20628;BME280;10473;42.734;24.258;2022-07-22T08:29:58;92103.97;;;29.30;37.25
20628;BME280;10473;42.734;24.258;2022-07-22T08:32:25;92108.63;;;29.64;38.21
20628;BME280;10473;42.734;24.258;2022-07-22T08:34:54;92102.25;;;29.92;37.76
20628;BME280;10473;42.734;24.258;2022-07-22T08:37:22;92115.38;;;29.88;36.66
20628;BME280;10473;42.734;24.258;2022-07-22T08:39:50;92123.03;;;29.84;36.62
20628;BME280;10473;42.734;24.258;2022-07-22T08:42:20;92119.50;;;30.24;38.72
20628;BME280;10473;42.734;24.258;2022-07-22T08:44:48;92126.00;;;30.57;37.40
20628;BME280;10473;42.734;24.258;2022-07-22T08:47:20;92136.72;;;30.86;36.35
20628;BME280;10473;42.734;24.258;2022-07-22T08:50:16;92122.72;;;31.15;36.06
20628;BME280;10473;42.734;24.258;2022-07-22T08:53:00;92146.69;;;30.89;33.39
20628;BME280;10473;42.734;24.258;2022-07-22T08:55:28;92131.44;;;31.19;35.16
20628;BME280;10473;42.734;24.258;2022-07-22T08:57:56;92147.31;;;31.41;35.93
20628;BME280;10473;42.734;24.258;2022-07-22T09:00:24;92148.53;;;31.03;33.43
20628;BME280;10473;42.734;24.258;2022-07-22T09:02:51;92143.75;;;31.29;33.61
20628;BME280;10473;42.734;24.258;2022-07-22T09:05:20;92151.97;;;31.29;33.41
20628;BME280;10473;42.734;24.258;2022-07-22T09:07:49;92151.88;;;31.18;34.33
20628;BME280;10473;42.734;24.258;2022-07-22T09:10:22;92164.78;;;31.49;35.17
20628;BME280;10473;42.734;24.258;2022-07-22T09:13:09;92165.38;;;31.64;34.67
20628;BME280;10473;42.734;24.258;2022-07-22T09:15:51;92175.44;;;31.83;34.13
20628;BME280;10473;42.734;24.258;2022-07-22T09:18:45;92180.19;;;31.88;34.33
20628;BME280;10473;42.734;24.258;2022-07-22T09:21:29;92182.50;;;31.95;34.11
20628;BME280;10473;42.734;24.258;2022-07-22T09:24:31;92180.00;;;31.92;33.99
20628;BME280;10473;42.734;24.258;2022-07-22T09:27:22;92176.78;;;32.04;32.71
20628;BME280;10473;42.734;24.258;2022-07-22T09:30:12;92192.75;;;32.11;33.21
20628;BME280;10473;42.734;24.258;2022-07-22T09:32:47;92193.31;;;32.21;32.76
20628;BME280;10473;42.734;24.258;2022-07-22T09:35:23;92188.28;;;32.08;33.54
20628;BME280;10473;42.734;24.258;2022-07-22T09:37:57;92184.06;;;32.13;33.47
20628;BME280;10473;42.734;24.258;2022-07-22T09:40:27;92193.25;;;32.04;32.04
20628;BME280;10473;42.734;24.258;2022-07-22T09:42:58;92195.19;;;31.98;33.25
20628;BME280;10473;42.734;24.258;2022-07-22T09:45:27;92190.81;;;32.23;32.99
20628;BME280;10473;42.734;24.258;2022-07-22T09:47:56;92199.38;;;32.41;32.46
20628;BME280;10473;42.734;24.258;2022-07-22T09:50:57;92208.13;;;32.45;33.13
20628;BME280;10473;42.734;24.258;2022-07-22T09:53:45;92211.56;;;32.35;32.17
20628;BME280;10473;42.734;24.258;2022-07-22T09:56:15;92205.88;;;32.38;32.72
20628;BME280;10473;42.734;24.258;2022-07-22T09:58:45;92190.72;;;31.95;31.99
20628;BME280;10473;42.734;24.258;2022-07-22T10:01:20;92191.03;;;31.66;32.09
20628;BME280;10473;42.734;24.258;2022-07-22T10:03:49;92193.69;;;31.92;33.88
20628;BME280;10473;42.734;24.258;2022-07-22T10:06:20;92202.22;;;31.99;31.85
20628;BME280;10473;42.734;24.258;2022-07-22T10:08:50;92202.00;;;32.08;31.92
20628;BME280;10473;42.734;24.258;2022-07-22T10:11:18;92202.44;;;32.01;31.91
20628;BME280;10473;42.734;24.258;2022-07-22T10:13:47;92209.94;;;32.06;32.21
20628;BME280;10473;42.734;24.258;2022-07-22T10:16:15;92216.00;;;32.16;33.61
20628;BME280;10473;42.734;24.258;2022-07-22T10:18:45;92215.72;;;32.14;31.58
20628;BME280;10473;42.734;24.258;2022-07-22T10:21:14;92214.34;;;31.82;29.79
20628;BME280;10473;42.734;24.258;2022-07-22T10:24:12;92208.41;;;31.94;30.69
20628;BME280;10473;42.734;24.258;2022-07-22T10:26:58;92193.66;;;31.86;31.15
20628;BME280;10473;42.734;24.258;2022-07-22T10:29:29;92200.19;;;31.94;31.68
20628;BME280;10473;42.734;24.258;2022-07-22T10:32:27;92204.75;;;32.08;32.16
20628;BME280;10473;42.734;24.258;2022-07-22T10:35:22;92212.72;;;32.17;33.30
20628;BME280;10473;42.734;24.258;2022-07-22T10:37:55;92205.28;;;32.23;32.24
20628;BME280;10473;42.734;24.258;2022-07-22T10:40:26;92204.00;;;32.13;32.22
20628;BME280;10473;42.734;24.258;2022-07-22T10:43:19;92197.69;;;31.96;32.86
20628;BME280;10473;42.734;24.258;2022-07-22T10:45:49;92194.25;;;32.12;30.14
20628;BME280;10473;42.734;24.258;2022-07-22T10:48:20;92208.28;;;32.25;30.12
20628;BME280;10473;42.734;24.258;2022-07-22T10:51:09;92201.88;;;32.39;31.49
20628;BME280;10473;42.734;24.258;2022-07-22T10:53:52;92203.38;;;32.51;31.66
20628;BME280;10473;42.734;24.258;2022-07-22T10:56:25;92205.41;;;32.62;30.31
20628;BME280;10473;42.734;24.258;2022-07-22T11:01:43;92201.88;;;32.39;30.37
20628;BME280;10473;42.734;24.258;2022-07-22T11:04:14;92192.47;;;31.56;30.58
20628;BME280;10473;42.734;24.258;2022-07-22T11:06:43;92195.13;;;31.76;30.17
20628;BME280;10473;42.734;24.258;2022-07-22T11:09:15;92190.41;;;31.46;32.62
20628;BME280;10473;42.734;24.258;2022-07-22T11:11:45;92205.59;;;31.78;33.04
20628;BME280;10473;42.734;24.258;2022-07-22T11:14:16;92199.47;;;31.99;32.03
20628;BME280;10473;42.734;24.258;2022-07-22T11:16:45;92208.50;;;31.69;31.10
20628;BME280;10473;42.734;24.258;2022-07-22T11:19:14;92208.63;;;31.85;30.90
20628;BME280;10473;42.734;24.258;2022-07-22T11:21:42;92207.03;;;31.73;31.27
20628;BME280;10473;42.734;24.258;2022-07-22T11:24:16;92190.53;;;31.62;31.96
20628;BME280;10473;42.734;24.258;2022-07-22T11:26:46;92198.63;;;31.82;30.95
20628;BME280;10473;42.734;24.258;2022-07-22T11:29:17;92201.72;;;31.59;30.86
20628;BME280;10473;42.734;24.258;2022-07-22T11:31:45;92191.28;;;31.68;30.78
20628;BME280;10473;42.734;24.258;2022-07-22T11:34:15;92203.78;;;31.69;32.09
20628;BME280;10473;42.734;24.258;2022-07-22T11:36:45;92195.94;;;31.93;31.83
20628;BME280;10473;42.734;24.258;2022-07-22T11:39:17;92202.22;;;32.05;31.72
20628;BME280;10473;42.734;24.258;2022-07-22T11:41:46;92196.03;;;32.15;31.81
20628;BME280;10473;42.734;24.258;2022-07-22T11:44:17;92194.72;;;32.00;30.13
20628;BME280;10473;42.734;24.258;2022-07-22T11:46:45;92202.66;;;31.92;30.62
20628;BME280;10473;42.734;24.258;2022-07-22T11:49:14;92196.94;;;31.96;30.75
20628;BME280;10473;42.734;24.258;2022-07-22T11:51:42;92194.44;;;31.87;30.86
20628;BME280;10473;42.734;24.258;2022-07-22T11:54:10;92200.41;;;31.85;30.55
20628;BME280;10473;42.734;24.258;2022-07-22T11:56:38;92204.16;;;31.88;31.28
20628;BME280;10473;42.734;24.258;2022-07-22T11:59:11;92199.91;;;31.87;30.35
20628;BME280;10473;42.734;24.258;2022-07-22T12:01:39;92206.41;;;31.89;29.73
20628;BME280;10473;42.734;24.258;2022-07-22T12:04:08;92209.06;;;31.78;30.13
20628;BME280;10473;42.734;24.258;2022-07-22T12:06:40;92211.16;;;31.94;31.42
20628;BME280;10473;42.734;24.258;2022-07-22T12:09:10;92197.97;;;32.04;30.32
20628;BME280;10473;42.734;24.258;2022-07-22T12:11:39;92208.44;;;32.00;29.34
20628;BME280;10473;42.734;24.258;2022-07-22T12:14:10;92193.47;;;31.95;30.10
20628;BME280;10473;42.734;24.258;2022-07-22T12:16:39;92189.00;;;32.03;29.80
20628;BME280;10473;42.734;24.258;2022-07-22T12:19:09;92185.50;;;32.03;30.09
20628;BME280;10473;42.734;24.258;2022-07-22T12:21:50;92196.97;;;32.01;29.88
20628;BME280;10473;42.734;24.258;2022-07-22T12:24:26;92193.50;;;32.01;29.86
20628;BME280;10473;42.734;24.258;2022-07-22T12:26:56;92189.78;;;32.09;29.28
20628;BME280;10473;42.734;24.258;2022-07-22T12:29:27;92189.56;;;32.18;29.49
20628;BME280;10473;42.734;24.258;2022-07-22T12:31:58;92193.00;;;32.08;29.49
20628;BME280;10473;42.734;24.258;2022-07-22T12:34:35;92186.72;;;31.96;28.91
20628;BME280;10473;42.734;24.258;2022-07-22T12:37:17;92190.13;;;31.75;29.47
20628;BME280;10473;42.734;24.258;2022-07-22T12:39:55;92184.97;;;31.93;29.86
20628;BME280;10473;42.734;24.258;2022-07-22T12:42:24;92180.28;;;31.99;29.16
20628;BME280;10473;42.734;24.258;2022-07-22T12:45:00;92176.53;;;32.02;28.94
20628;BME280;10473;42.734;24.258;2022-07-22T12:47:45;92182.00;;;32.02;30.32
20628;BME280;10473;42.734;24.258;2022-07-22T12:50:22;92182.03;;;32.08;30.49
20628;BME280;10473;42.734;24.258;2022-07-22T12:52:51;92179.06;;;32.06;29.60
20628;BME280;10473;42.734;24.258;2022-07-22T12:55:19;92177.78;;;32.01;30.47
20628;BME280;10473;42.734;24.258;2022-07-22T12:57:46;92175.72;;;31.85;29.61
20628;BME280;10473;42.734;24.258;2022-07-22T13:00:19;92180.44;;;31.79;31.11
20628;BME280;10473;42.734;24.258;2022-07-22T13:02:47;92185.22;;;31.95;31.19
20628;BME280;10473;42.734;24.258;2022-07-22T13:05:15;92182.78;;;32.08;31.29
20628;BME280;10473;42.734;24.258;2022-07-22T13:07:43;92170.56;;;32.15;32.50
20628;BME280;10473;42.734;24.258;2022-07-22T13:10:12;92182.03;;;32.08;30.37
20628;BME280;10473;42.734;24.258;2022-07-22T13:12:40;92179.25;;;32.02;30.69
20628;BME280;10473;42.734;24.258;2022-07-22T13:15:09;92188.72;;;31.96;29.97